createdAt,value
2018-04-19T00:01:28.585Z,99.90
2018-04-19T00:03:56.033Z,99.90
2018-04-19T00:06:23.470Z,99.90
2018-04-19T00:08:50.920Z,99.90
2018-04-19T00:11:18.365Z,99.90
2018-04-19T00:13:45.896Z,99.90
2018-04-19T00:16:13.317Z,99.90
2018-04-19T00:18:41.533Z,99.90
2018-04-19T00:21:08.979Z,99.90
2018-04-19T00:23:36.429Z,99.90
2018-04-19T00:26:03.877Z,99.90
2018-04-19T00:28:31.324Z,99.90
2018-04-19T00:30:58.825Z,99.90
2018-04-19T00:33:26.269Z,99.90
2018-04-19T00:35:53.725Z,99.90
2018-04-19T00:38:21.175Z,99.90
2018-04-19T00:40:48.658Z,99.90
2018-04-19T00:43:16.112Z,99.90
2018-04-19T00:45:43.566Z,99.90
2018-04-19T00:48:11.016Z,99.90
2018-04-19T00:50:38.661Z,99.90
2018-04-19T00:53:09.862Z,99.90
2018-04-19T00:55:38.084Z,99.90
2018-04-19T00:58:05.558Z,99.90
2018-04-19T01:00:33.015Z,99.90
2018-04-19T01:03:00.469Z,99.90
2018-04-19T01:05:27.912Z,99.90
2018-04-19T01:07:55.463Z,99.90
2018-04-19T01:10:22.933Z,99.90
2018-04-19T01:12:50.352Z,99.90
2018-04-19T01:15:17.857Z,99.90
2018-04-19T01:17:45.300Z,99.90
2018-04-19T01:20:12.752Z,99.90
2018-04-19T01:22:40.220Z,99.90
2018-04-19T01:25:07.677Z,99.90
2018-04-19T01:27:35.120Z,99.90
2018-04-19T01:30:02.578Z,99.90
2018-04-19T01:32:30.043Z,99.90
2018-04-19T01:34:57.508Z,99.90
2018-04-19T01:37:24.953Z,99.90
2018-04-19T01:39:52.421Z,99.90
2018-04-19T01:42:19.954Z,99.90
2018-04-19T01:44:47.385Z,99.90
2018-04-19T01:47:14.837Z,99.90
2018-04-19T01:49:43.053Z,99.90
2018-04-19T01:52:10.510Z,99.90
2018-04-19T01:54:37.947Z,99.90
2018-04-19T01:57:05.400Z,99.90
2018-04-19T01:59:32.837Z,99.90
2018-04-19T02:02:00.303Z,99.90
2018-04-19T02:04:28.527Z,99.90
2018-04-19T02:06:56.673Z,99.90
2018-04-19T02:09:24.169Z,99.90
2018-04-19T02:11:51.729Z,99.90
2018-04-19T02:14:19.172Z,99.90
2018-04-19T02:16:46.730Z,99.90
2018-04-19T02:19:14.215Z,99.90
2018-04-19T02:21:41.616Z,99.90
2018-04-19T02:24:09.071Z,99.90
2018-04-19T02:26:36.504Z,99.90
2018-04-19T02:29:03.949Z,99.90
2018-04-19T02:31:32.181Z,99.90
2018-04-19T02:33:59.653Z,99.90
2018-04-19T02:36:27.105Z,99.90
2018-04-19T02:38:54.653Z,99.90
2018-04-19T02:41:22.097Z,99.90
2018-04-19T02:43:49.554Z,99.90
2018-04-19T02:46:16.986Z,99.90
2018-04-19T02:48:44.496Z,99.90
2018-04-19T02:51:12.016Z,99.90
2018-04-19T02:53:39.444Z,99.90
2018-04-19T02:56:06.895Z,99.90
2018-04-19T02:58:35.115Z,99.90
2018-04-19T03:01:02.542Z,99.90
2018-04-19T03:03:30.012Z,99.90
2018-04-19T03:05:57.438Z,99.90
2018-04-19T03:08:25.666Z,99.90
2018-04-19T03:10:53.084Z,99.90
2018-04-19T03:13:20.540Z,99.90
2018-04-19T03:15:47.985Z,99.90
2018-04-19T03:18:15.428Z,99.90
2018-04-19T03:20:43.649Z,99.90
2018-04-19T03:23:11.109Z,99.90
2018-04-19T03:25:38.577Z,99.90
2018-04-19T03:28:06.020Z,99.90
2018-04-19T03:30:33.469Z,99.90
2018-04-19T03:33:00.917Z,99.90
2018-04-19T03:35:28.359Z,99.90
2018-04-19T03:37:56.576Z,99.90
2018-04-19T03:40:24.004Z,99.90
2018-04-19T03:42:51.455Z,99.90
2018-04-19T03:45:18.909Z,99.90
2018-04-19T03:47:46.357Z,99.90
2018-04-19T03:50:14.577Z,99.90
2018-04-19T03:52:42.034Z,99.90
2018-04-19T03:55:09.485Z,99.90
2018-04-19T03:57:36.932Z,99.90
2018-04-19T04:00:04.383Z,99.90
2018-04-19T04:02:31.820Z,99.90
2018-04-19T04:04:59.273Z,99.90
2018-04-19T04:07:27.492Z,99.90
2018-04-19T04:09:54.949Z,99.90
2018-04-19T04:12:22.381Z,99.90
2018-04-19T04:14:49.840Z,99.90
2018-04-19T04:17:29.152Z,99.90
2018-04-19T04:23:06.228Z,99.90
2018-04-19T04:25:34.581Z,99.90
2018-04-19T04:28:02.018Z,99.90
2018-04-19T04:30:29.457Z,99.90
2018-04-19T04:32:56.907Z,99.90
2018-04-19T04:35:24.374Z,99.90
2018-04-19T04:37:51.824Z,99.90
2018-04-19T04:40:19.270Z,99.90
2018-04-19T04:42:47.513Z,99.90
2018-04-19T04:45:14.972Z,99.90
2018-04-19T04:47:42.496Z,99.90
2018-04-19T04:50:10.037Z,99.90
2018-04-19T04:52:37.515Z,99.90
2018-04-19T04:55:04.973Z,99.90
2018-04-19T04:57:32.429Z,99.90
2018-04-19T04:59:59.900Z,99.90
2018-04-19T05:02:27.354Z,99.90
2018-04-19T05:04:54.886Z,99.90
2018-04-19T05:07:22.341Z,99.90
2018-04-19T05:09:49.892Z,99.90
2018-04-19T05:12:17.325Z,99.90
2018-04-19T05:14:44.772Z,99.90
2018-04-19T05:17:12.990Z,99.90
2018-04-19T05:19:40.454Z,99.90
2018-04-19T05:22:07.889Z,99.90
2018-04-19T05:24:35.371Z,99.90
2018-04-19T05:27:02.909Z,99.90
2018-04-19T05:29:30.330Z,99.90
2018-04-19T05:31:58.556Z,99.90
2018-04-19T05:34:25.996Z,99.90
2018-04-19T05:36:53.450Z,99.90
2018-04-19T05:39:20.873Z,99.90
2018-04-19T05:41:49.140Z,99.90
2018-04-19T05:44:17.353Z,99.90
2018-04-19T05:46:44.793Z,99.90
2018-04-19T05:49:12.300Z,99.90
2018-04-19T05:51:39.829Z,99.90
2018-04-19T05:54:07.250Z,99.90
2018-04-19T05:56:35.488Z,99.90
2018-04-19T05:59:02.947Z,99.90
2018-04-19T06:01:30.417Z,99.90
2018-04-19T06:03:57.975Z,99.90
2018-04-19T06:06:25.447Z,99.90
2018-04-19T06:08:52.887Z,99.90
2018-04-19T06:11:20.454Z,99.90
2018-04-19T06:13:47.995Z,99.90
2018-04-19T06:16:15.433Z,99.90
2018-04-19T06:18:42.873Z,99.90
2018-04-19T06:21:10.321Z,99.90
2018-04-19T06:23:37.773Z,99.90
2018-04-19T06:26:05.224Z,99.90
2018-04-19T06:28:33.443Z,99.90
2018-04-19T06:31:00.926Z,99.90
2018-04-19T06:33:28.478Z,99.90
2018-04-19T06:35:55.994Z,99.90
2018-04-19T06:38:23.434Z,99.90
2018-04-19T06:40:50.888Z,99.90
2018-04-19T06:43:18.374Z,99.90
2018-04-19T06:45:45.861Z,99.90
2018-04-19T06:48:13.305Z,99.90
2018-04-19T06:50:40.760Z,99.90
2018-04-19T06:53:08.202Z,99.90
2018-04-19T06:55:35.666Z,99.90
2018-04-19T06:58:03.113Z,99.90
2018-04-19T07:00:30.594Z,99.90
2018-04-19T07:02:58.145Z,99.90
2018-04-19T07:05:25.605Z,99.90
2018-04-19T07:07:53.059Z,99.90
2018-04-19T07:10:20.492Z,99.90
2018-04-19T07:12:47.947Z,99.90
2018-04-19T07:15:15.392Z,99.90
2018-04-19T07:17:42.829Z,99.90
2018-04-19T07:20:11.057Z,99.90
2018-04-19T07:22:38.532Z,99.90
2018-04-19T07:25:06.081Z,99.90
2018-04-19T07:27:33.525Z,99.90
2018-04-19T07:30:00.990Z,99.90
2018-04-19T07:32:29.208Z,99.90
2018-04-19T07:34:57.428Z,99.90
2018-04-19T07:37:24.865Z,99.90
2018-04-19T07:39:52.323Z,99.90
2018-04-19T07:42:19.857Z,99.90
2018-04-19T07:44:48.083Z,99.90
2018-04-19T07:47:15.514Z,99.90
2018-04-19T07:49:42.961Z,99.90
2018-04-19T07:52:10.402Z,99.90
2018-04-19T07:54:37.856Z,99.90
2018-04-19T07:57:06.166Z,99.90
2018-04-19T07:59:33.604Z,99.90
2018-04-19T08:02:01.063Z,99.90
2018-04-19T08:04:28.510Z,99.90
2018-04-19T08:06:55.945Z,99.90
2018-04-19T08:09:24.169Z,99.90
2018-04-19T08:11:51.615Z,99.90
2018-04-19T08:14:19.054Z,99.90
2018-04-19T08:16:46.553Z,99.90
2018-04-19T08:19:14.014Z,99.90
2018-04-19T08:21:41.461Z,99.90
2018-04-19T08:24:09.101Z,99.90
2018-04-19T08:26:36.525Z,99.90
2018-04-19T08:29:04.734Z,99.90
2018-04-19T08:31:32.178Z,99.90
2018-04-19T08:33:59.608Z,99.90
2018-04-19T08:36:27.818Z,99.90
2018-04-19T08:38:55.272Z,99.90
2018-04-19T08:41:22.702Z,99.90
2018-04-19T08:43:50.985Z,99.90
2018-04-19T08:46:19.489Z,99.90
2018-04-19T08:48:47.157Z,99.90
2018-04-19T08:51:14.603Z,99.90
2018-04-19T08:53:42.036Z,99.90
2018-04-19T08:56:09.514Z,99.90
2018-04-19T08:58:36.944Z,99.90
2018-04-19T09:01:04.385Z,99.90
2018-04-19T09:03:32.617Z,99.90
2018-04-19T09:06:00.048Z,99.90
2018-04-19T09:08:27.494Z,99.90
2018-04-19T09:10:54.941Z,99.90
2018-04-19T09:13:23.168Z,99.90
2018-04-19T09:15:51.401Z,99.90
2018-04-19T09:18:18.896Z,99.90
2018-04-19T09:20:46.331Z,99.90
2018-04-19T09:23:13.787Z,99.90
2018-04-19T09:25:41.216Z,99.90
2018-04-19T09:28:08.656Z,99.90
2018-04-19T09:30:36.865Z,99.90
2018-04-19T09:33:04.301Z,99.90
2018-04-19T09:35:31.741Z,99.90
2018-04-19T09:37:59.961Z,99.90
2018-04-19T09:40:27.388Z,99.90
2018-04-19T09:42:54.841Z,99.90
2018-04-19T09:45:23.041Z,99.90
2018-04-19T09:47:50.481Z,99.90
2018-04-19T09:50:17.932Z,99.90
2018-04-19T09:52:45.373Z,99.90
2018-04-19T09:55:13.687Z,99.90
2018-04-19T09:57:41.113Z,99.90
2018-04-19T10:00:08.575Z,99.90
2018-04-19T10:02:36.783Z,99.90
2018-04-19T10:05:04.246Z,99.90
2018-04-19T10:07:31.684Z,99.90
2018-04-19T10:09:59.140Z,99.90
2018-04-19T10:12:26.561Z,99.90
2018-04-19T10:14:54.792Z,99.90
2018-04-19T10:17:22.330Z,99.90
2018-04-19T10:19:49.786Z,99.90
2018-04-19T10:22:17.977Z,99.90
2018-04-19T10:24:45.413Z,99.90
2018-04-19T10:27:12.852Z,99.90
2018-04-19T10:29:40.332Z,99.90
2018-04-19T10:32:07.887Z,99.90
2018-04-19T10:34:35.332Z,99.90
2018-04-19T10:37:02.874Z,99.90
2018-04-19T10:39:31.184Z,99.90
2018-04-19T10:41:58.625Z,99.90
2018-04-19T10:44:26.073Z,99.90
2018-04-19T10:46:53.517Z,99.90
2018-04-19T10:49:21.834Z,99.90
2018-04-19T10:51:49.282Z,99.90
2018-04-19T10:54:16.740Z,99.90
2018-04-19T10:56:44.181Z,99.90
2018-04-19T10:59:11.626Z,99.90
2018-04-19T11:01:39.068Z,99.90
2018-04-19T11:04:07.278Z,99.90
2018-04-19T11:06:34.836Z,99.90
2018-04-19T11:09:02.275Z,99.90
2018-04-19T11:11:29.720Z,99.90
2018-04-19T11:13:58.025Z,99.90
2018-04-19T11:16:25.457Z,99.90
2018-04-19T11:18:52.887Z,99.90
2018-04-19T11:21:21.121Z,99.90
2018-04-19T11:23:48.566Z,99.90
2018-04-19T11:26:16.017Z,99.90
2018-04-19T11:28:43.479Z,99.90
2018-04-19T11:31:10.904Z,99.90
2018-04-19T11:33:39.209Z,99.90
2018-04-19T11:36:06.645Z,99.90
2018-04-19T11:38:34.087Z,99.90
2018-04-19T11:41:02.305Z,99.90
2018-04-19T11:43:29.755Z,99.90
2018-04-19T11:45:57.317Z,99.90
2018-04-19T11:48:24.763Z,99.90
2018-04-19T11:50:52.236Z,99.90
2018-04-19T11:53:19.693Z,99.90
2018-04-19T11:55:47.151Z,99.90
2018-04-19T11:58:14.609Z,99.90
2018-04-19T12:00:42.133Z,99.90
2018-04-19T12:03:10.338Z,99.90
2018-04-19T12:05:37.772Z,99.90
2018-04-19T12:08:05.340Z,99.90
2018-04-19T12:10:32.764Z,99.90
2018-04-19T12:13:00.991Z,99.90
2018-04-19T12:15:28.435Z,99.90
2018-04-19T12:17:55.880Z,99.90
2018-04-19T12:20:23.301Z,99.90
2018-04-19T12:22:51.521Z,99.90
2018-04-19T12:25:18.969Z,99.90
2018-04-19T12:27:46.425Z,99.90
2018-04-19T12:30:13.866Z,99.90
2018-04-19T12:32:41.318Z,99.90
2018-04-19T12:35:08.755Z,99.90
2018-04-19T12:37:37.033Z,99.90
2018-04-19T12:40:04.422Z,99.90
2018-04-19T12:42:31.904Z,99.90
2018-04-19T12:44:59.360Z,99.90
2018-04-19T12:47:26.802Z,99.90
2018-04-19T12:49:54.260Z,99.90
2018-04-19T12:52:21.805Z,99.90
2018-04-19T12:54:49.236Z,99.90
2018-04-19T12:57:16.684Z,99.90
2018-04-19T12:59:44.896Z,99.90
2018-04-19T13:02:12.340Z,99.90
2018-04-19T13:04:39.791Z,99.90
2018-04-19T13:07:07.233Z,99.90
2018-04-19T13:09:34.677Z,99.90
2018-04-19T13:12:02.885Z,99.90
2018-04-19T13:14:30.345Z,99.90
2018-04-19T13:16:57.780Z,99.90
2018-04-19T13:19:25.228Z,99.90
2018-04-19T13:21:53.433Z,99.90
2018-04-19T13:24:20.917Z,99.90
2018-04-19T13:26:48.349Z,99.90
2018-04-19T13:29:15.800Z,99.90
2018-04-19T13:31:43.254Z,99.90
2018-04-19T13:34:10.716Z,99.90
2018-04-19T13:36:38.148Z,99.90
2018-04-19T13:39:07.264Z,99.90
2018-04-19T13:41:34.712Z,99.90
2018-04-19T13:44:02.477Z,99.90
2018-04-19T13:46:29.896Z,99.90
2018-04-19T13:48:58.120Z,99.90
2018-04-19T13:51:25.545Z,99.90
2018-04-19T13:53:53.004Z,99.90
2018-04-19T13:56:20.445Z,99.90
2018-04-19T13:58:48.657Z,99.90
2018-04-19T14:01:16.113Z,99.90
2018-04-19T14:03:43.551Z,99.90
2018-04-19T14:06:10.981Z,99.90
2018-04-19T14:08:39.203Z,99.90
2018-04-19T14:11:06.654Z,99.90
2018-04-19T14:13:34.085Z,99.90
2018-04-19T14:16:01.544Z,99.90
2018-04-19T14:18:28.976Z,99.90
2018-04-19T14:20:57.188Z,99.90
2018-04-19T14:23:24.632Z,99.90
2018-04-19T14:25:52.829Z,99.90
2018-04-19T14:28:20.278Z,99.90
2018-04-19T14:30:47.737Z,99.90
2018-04-19T14:33:15.196Z,99.90
2018-04-19T14:35:42.691Z,99.90
2018-04-19T14:38:10.134Z,99.90
2018-04-19T14:40:37.597Z,99.90
2018-04-19T14:43:05.027Z,99.90
2018-04-19T14:45:32.510Z,99.90
2018-04-19T14:47:59.952Z,99.90
2018-04-19T14:50:27.441Z,99.90
2018-04-19T14:52:54.945Z,99.90
2018-04-19T14:55:22.412Z,99.90
2018-04-19T14:57:49.886Z,99.90
2018-04-19T15:00:18.050Z,99.90
2018-04-19T15:02:45.502Z,99.90
2018-04-19T15:05:12.941Z,99.90
2018-04-19T15:07:40.399Z,99.90
2018-04-19T15:10:07.858Z,99.90
2018-04-19T15:12:35.290Z,99.90
2018-04-19T15:15:02.734Z,99.90
2018-04-19T15:17:30.938Z,99.90
2018-04-19T15:19:58.441Z,99.90
2018-04-19T15:22:25.824Z,99.90
2018-04-19T15:24:54.027Z,99.90
2018-04-19T15:27:21.464Z,99.90
2018-04-19T15:29:48.916Z,99.90
2018-04-19T15:32:16.354Z,99.90
2018-04-19T15:34:44.573Z,99.70
2018-04-19T15:37:12.128Z,99.60
2018-04-19T15:39:39.570Z,97.50
2018-04-19T15:42:07.014Z,95.10
2018-04-19T15:44:34.496Z,92.30
2018-04-19T15:47:02.140Z,86.10
2018-04-19T15:49:29.571Z,82.30
2018-04-19T15:51:57.785Z,74.90
2018-04-19T15:54:25.245Z,74.80
2018-04-19T15:56:52.687Z,73.50
2018-04-19T15:59:20.120Z,73.40
2018-04-19T16:01:48.432Z,69.60
2018-04-19T16:04:15.892Z,69.50
2018-04-19T16:06:43.329Z,70.00
2018-04-19T16:09:10.818Z,69.90
2018-04-19T16:11:38.239Z,67.10
2018-04-19T16:14:05.818Z,65.50
2018-04-19T16:16:33.358Z,64.10
2018-04-19T16:19:00.844Z,63.30
2018-04-19T16:21:29.024Z,60.10
2018-04-19T16:23:56.488Z,60.00
2018-04-19T16:26:23.918Z,59.60
2018-04-19T16:28:51.333Z,59.10
2018-04-19T16:31:19.540Z,58.30
2018-04-19T16:33:46.969Z,58.30
2018-04-19T16:36:15.206Z,58.30
2018-04-19T16:38:42.707Z,58.20
2018-04-19T16:41:10.151Z,57.90
2018-04-19T16:43:37.561Z,57.80
2018-04-19T16:46:05.020Z,58.00
2018-04-19T16:48:32.567Z,58.10
2018-04-19T16:50:59.996Z,58.70
2018-04-19T16:53:27.478Z,59.30
2018-04-19T16:55:55.070Z,59.90
2018-04-19T16:58:22.505Z,60.70
2018-04-19T17:00:49.958Z,60.70
2018-04-19T17:03:17.380Z,60.80
2018-04-19T17:05:44.828Z,61.30
2018-04-19T17:08:13.042Z,62.10
2018-04-19T17:10:40.596Z,62.00
2018-04-19T17:13:08.052Z,62.70
2018-04-19T17:15:35.488Z,62.10
2018-04-19T17:18:02.948Z,62.10
2018-04-19T17:20:30.427Z,61.80
2018-04-19T17:22:57.880Z,62.30
2018-04-19T17:25:25.310Z,62.90
2018-04-19T17:27:53.521Z,63.70
2018-04-19T17:30:20.961Z,63.60
2018-04-19T17:32:48.409Z,63.80
2018-04-19T17:35:15.836Z,65.30
2018-04-19T17:37:43.284Z,66.40
2018-04-19T17:40:10.717Z,67.50
2018-04-19T17:42:38.154Z,66.90
2018-04-19T17:45:05.591Z,67.70
2018-04-19T17:47:33.066Z,68.10
2018-04-19T17:50:00.628Z,68.80
2018-04-19T17:52:28.053Z,69.70
2018-04-19T17:54:56.289Z,70.60
2018-04-19T17:57:23.819Z,70.40
2018-04-19T17:59:51.243Z,71.40
2018-04-19T18:02:19.453Z,73.40
2018-04-19T18:04:46.947Z,73.30
2018-04-19T18:07:14.385Z,74.10
2018-04-19T18:09:41.826Z,75.60
2018-04-19T18:12:09.276Z,76.60
2018-04-19T18:14:36.705Z,77.80
2018-04-19T18:17:05.010Z,79.60
2018-04-19T18:19:32.445Z,79.50
2018-04-19T18:22:00.666Z,81.50
2018-04-19T18:24:28.208Z,81.40
2018-04-19T18:26:55.677Z,82.00
2018-04-19T18:29:23.136Z,83.00
2018-04-19T18:31:50.616Z,83.70
2018-04-19T18:34:18.064Z,84.60
2018-04-19T18:36:45.514Z,85.40
2018-04-19T18:39:12.957Z,86.50
2018-04-19T18:41:40.405Z,87.40
2018-04-19T18:44:07.895Z,88.30
2018-04-19T18:46:35.341Z,89.20
2018-04-19T18:49:02.790Z,90.10
2018-04-19T18:51:30.347Z,90.40
2018-04-19T18:53:57.829Z,91.20
2018-04-19T18:56:25.366Z,91.60
2018-04-19T18:58:52.792Z,91.70
2018-04-19T19:01:20.990Z,92.30
2018-04-19T19:03:48.557Z,92.30
2018-04-19T19:06:16.005Z,92.90
2018-04-19T19:08:43.446Z,93.20
2018-04-19T19:11:10.937Z,93.80
2018-04-19T19:13:38.384Z,94.00
2018-04-19T19:16:09.546Z,94.30
2018-04-19T19:18:48.893Z,94.80
2018-04-19T19:21:16.337Z,95.20
2018-04-19T19:23:43.826Z,95.90
2018-04-19T19:26:11.357Z,96.20
2018-04-19T19:28:38.837Z,96.60
2018-04-19T19:31:07.794Z,97.50
2018-04-19T19:33:35.249Z,97.50
2018-04-19T19:36:02.689Z,98.10
2018-04-19T19:38:30.203Z,98.80
2018-04-19T19:40:57.577Z,99.30
2018-04-19T19:43:25.784Z,99.90
2018-04-19T19:45:53.237Z,99.90
2018-04-19T19:48:20.677Z,99.90
2018-04-19T19:50:48.142Z,99.90
2018-04-19T19:53:15.597Z,99.90
2018-04-19T19:55:43.063Z,99.90
2018-04-19T19:58:10.489Z,99.90
2018-04-19T20:00:38.729Z,99.90
2018-04-19T20:03:06.174Z,99.90
2018-04-19T20:05:33.627Z,99.90
2018-04-19T20:08:01.062Z,99.90
2018-04-19T20:10:28.501Z,99.90
2018-04-19T20:12:55.940Z,99.90
2018-04-19T20:15:24.153Z,99.90
2018-04-19T20:17:51.621Z,99.90
2018-04-19T20:20:19.065Z,99.90
2018-04-19T20:22:46.500Z,99.90
2018-04-19T20:25:13.954Z,99.90
2018-04-19T20:27:41.392Z,99.90
2018-04-19T20:30:09.593Z,99.90
2018-04-19T20:32:37.062Z,99.90
2018-04-19T20:35:04.492Z,99.90
2018-04-19T20:37:31.932Z,99.90
2018-04-19T20:40:00.156Z,99.90
2018-04-19T20:42:27.592Z,99.90
2018-04-19T20:44:55.073Z,99.90
2018-04-19T20:47:22.560Z,99.90
2018-04-19T20:49:50.075Z,99.90
2018-04-19T20:52:17.504Z,99.90
2018-04-19T20:54:44.961Z,99.90
2018-04-19T20:57:13.165Z,99.90
2018-04-19T20:59:40.620Z,99.90
2018-04-19T21:02:08.063Z,99.90
2018-04-19T21:04:35.500Z,99.90
2018-04-19T21:07:03.706Z,99.90
2018-04-19T21:09:31.144Z,99.90
2018-04-19T21:11:58.581Z,99.90
2018-04-19T21:14:26.896Z,99.90
2018-04-19T21:16:54.324Z,99.90
2018-04-19T21:19:22.544Z,99.90
2018-04-19T21:21:49.982Z,99.90
2018-04-19T21:24:17.427Z,99.90
2018-04-19T21:26:44.893Z,99.90
2018-04-19T21:29:12.316Z,99.90
2018-04-19T21:31:40.533Z,99.90
2018-04-19T21:34:07.976Z,99.90
2018-04-19T21:36:35.423Z,99.90
2018-04-19T21:39:03.634Z,99.90
2018-04-19T21:41:31.078Z,99.90
2018-04-19T21:43:58.518Z,99.90
2018-04-19T21:46:26.015Z,99.90
2018-04-19T21:48:53.461Z,99.90
2018-04-19T21:51:21.006Z,99.90
2018-04-19T21:53:48.438Z,99.90
2018-04-19T21:56:15.876Z,99.90
2018-04-19T21:58:44.084Z,99.90
2018-04-19T22:01:11.571Z,99.90
2018-04-19T22:03:39.118Z,99.90
2018-04-19T22:06:06.609Z,99.90
2018-04-19T22:08:34.148Z,99.90
2018-04-19T22:11:01.575Z,99.90
2018-04-19T22:13:29.137Z,99.90
2018-04-19T22:15:56.576Z,99.90
2018-04-19T22:18:24.025Z,99.90
2018-04-19T22:20:51.468Z,99.90
2018-04-19T22:23:19.696Z,99.90
2018-04-19T22:25:47.149Z,99.90
2018-04-19T22:28:14.600Z,99.90
2018-04-19T22:30:42.037Z,99.90
2018-04-19T22:33:09.490Z,99.90
2018-04-19T22:35:36.924Z,99.90
2018-04-19T22:38:05.146Z,99.90
2018-04-19T22:40:32.653Z,99.90
2018-04-19T22:43:00.859Z,99.90
2018-04-19T22:45:28.637Z,99.90
2018-04-19T22:47:56.066Z,99.90
2018-04-19T22:50:23.520Z,99.90
2018-04-19T22:52:51.716Z,99.90
2018-04-19T22:55:19.173Z,99.90
2018-04-19T22:57:46.608Z,99.90
2018-04-19T23:00:14.825Z,99.90
2018-04-19T23:02:42.361Z,99.90
2018-04-19T23:05:09.806Z,99.90
2018-04-19T23:07:37.301Z,99.90
2018-04-19T23:10:04.757Z,99.90
2018-04-19T23:12:32.205Z,99.90
2018-04-19T23:14:59.654Z,99.90
2018-04-19T23:17:27.085Z,99.90
2018-04-19T23:19:54.533Z,99.90
2018-04-19T23:22:33.971Z,99.90
2018-04-19T23:25:02.228Z,99.90
2018-04-19T23:27:29.643Z,99.90
2018-04-19T23:29:57.109Z,99.90
2018-04-19T23:32:24.552Z,99.90
2018-04-19T23:34:52.095Z,99.90
2018-04-19T23:37:19.521Z,99.90
2018-04-19T23:39:46.964Z,99.90
2018-04-19T23:42:14.388Z,99.90
2018-04-19T23:44:41.838Z,99.90
2018-04-19T23:47:09.293Z,99.90
2018-04-19T23:49:36.729Z,99.90
2018-04-19T23:52:04.213Z,99.90
2018-04-19T23:54:31.654Z,99.90
2018-04-19T23:56:59.103Z,99.90
2018-04-19T23:59:26.539Z,99.90
